createdAt,value
2023-02-16T00:02:11.325Z,8.45
2023-02-16T00:04:38.548Z,6.90
2023-02-16T00:07:05.771Z,5.63
2023-02-16T00:09:32.962Z,6.82
2023-02-16T00:12:35.537Z,4.68
2023-02-16T00:15:15.835Z,12.68
2023-02-16T00:17:43.068Z,7.88
2023-02-16T00:20:15.340Z,8.18
2023-02-16T00:22:42.948Z,6.20
2023-02-16T00:25:10.856Z,7.70
2023-02-16T00:27:38.378Z,8.75
2023-02-16T00:30:20.706Z,7.90
2023-02-16T00:32:50.306Z,11.10
2023-02-16T00:35:19.438Z,6.10
2023-02-16T00:37:47.838Z,12.93
2023-02-16T00:40:16.776Z,12.77
2023-02-16T00:42:46.832Z,8.73
2023-02-16T00:45:21.679Z,8.68
2023-02-16T00:47:52.477Z,9.13
2023-02-16T00:50:24.765Z,13.32
2023-02-16T00:52:52.161Z,9.43
2023-02-16T00:55:25.236Z,11.45
2023-02-16T00:58:15.570Z,9.25
2023-02-16T01:00:50.746Z,8.73
2023-02-16T01:03:24.043Z,10.00
2023-02-16T01:06:11.344Z,11.80
2023-02-16T01:08:57.486Z,10.52
2023-02-16T01:11:25.613Z,9.48
2023-02-16T01:13:54.829Z,9.32
2023-02-16T01:16:25.185Z,7.47
2023-02-16T01:18:53.026Z,14.30
2023-02-16T01:21:22.047Z,13.70
2023-02-16T01:23:49.400Z,11.43
2023-02-16T01:26:20.046Z,11.63
2023-02-16T01:28:48.301Z,14.55
2023-02-16T01:31:17.541Z,9.73
2023-02-16T01:33:44.969Z,16.77
2023-02-16T01:36:28.383Z,11.57
2023-02-16T01:38:55.666Z,13.52
2023-02-16T01:41:46.495Z,9.00
2023-02-16T01:44:24.523Z,9.82
2023-02-16T01:47:19.144Z,10.75
2023-02-16T01:49:46.324Z,11.95
2023-02-16T01:52:16.276Z,10.32
2023-02-16T01:54:54.026Z,6.90
2023-02-16T01:57:38.477Z,7.13
2023-02-16T02:00:24.892Z,11.07
2023-02-16T02:03:17.747Z,13.13
2023-02-16T02:05:45.711Z,5.57
2023-02-16T02:08:38.547Z,12.23
2023-02-16T02:11:19.903Z,9.00
2023-02-16T02:14:08.675Z,7.35
2023-02-16T02:16:36.214Z,7.45
2023-02-16T02:19:04.196Z,7.05
2023-02-16T02:22:30.676Z,7.80
2023-02-16T02:25:24.830Z,8.00
2023-02-16T02:28:14.086Z,9.55
2023-02-16T02:30:52.655Z,10.48
2023-02-16T02:33:26.792Z,7.82
2023-02-16T02:36:21.843Z,7.45
2023-02-16T02:39:08.556Z,9.65
2023-02-16T02:42:02.395Z,9.10
2023-02-16T02:44:42.473Z,8.35
2023-02-16T02:47:09.774Z,11.70
2023-02-16T02:49:37.122Z,8.38
2023-02-16T02:52:04.565Z,10.48
2023-02-16T02:54:55.227Z,10.57
2023-02-16T02:57:56.628Z,7.57
2023-02-16T03:00:47.790Z,5.85
2023-02-16T03:03:30.474Z,8.70
2023-02-16T03:06:03.094Z,8.40
2023-02-16T03:08:33.602Z,8.48
2023-02-16T03:11:29.987Z,7.85
2023-02-16T03:14:01.659Z,8.15
2023-02-16T03:16:37.483Z,5.82
2023-02-16T03:19:28.844Z,12.63
2023-02-16T03:22:16.312Z,7.07
2023-02-16T03:25:02.338Z,11.27
2023-02-16T03:27:57.311Z,8.80
2023-02-16T03:30:25.762Z,6.53
2023-02-16T03:32:55.572Z,9.68
2023-02-16T03:37:49.975Z,8.00
2023-02-16T03:40:30.248Z,8.73
2023-02-16T03:43:01.054Z,11.15
2023-02-16T03:45:28.925Z,12.07
2023-02-16T03:47:56.160Z,9.30
2023-02-16T03:50:23.496Z,6.15
2023-02-16T03:52:50.722Z,9.75
2023-02-16T03:55:18.016Z,8.63
2023-02-16T03:57:45.217Z,5.90
2023-02-16T04:00:12.966Z,8.40
2023-02-16T04:02:43.916Z,4.88
2023-02-16T04:05:11.158Z,7.35
2023-02-16T04:07:38.346Z,11.32
2023-02-16T04:10:06.144Z,8.18
2023-02-16T04:12:36.137Z,9.60
2023-02-16T04:15:06.275Z,7.90
2023-02-16T04:17:33.504Z,8.65
2023-02-16T04:20:00.737Z,4.63
2023-02-16T04:23:32.713Z,8.27
2023-02-16T04:26:04.060Z,6.55
2023-02-16T04:28:31.270Z,9.40
2023-02-16T04:30:58.539Z,4.68
2023-02-16T04:33:25.797Z,7.97
2023-02-16T04:35:53.010Z,7.18
2023-02-16T04:38:20.253Z,8.00
2023-02-16T04:41:43.422Z,7.45
2023-02-16T04:44:10.625Z,6.68
2023-02-16T04:46:37.811Z,7.88
2023-02-16T04:49:05.104Z,6.43
2023-02-16T04:51:32.279Z,8.13
2023-02-16T04:53:59.489Z,5.13
2023-02-16T04:56:28.155Z,10.10
2023-02-16T04:58:56.234Z,7.63
2023-02-16T05:01:27.146Z,8.50
2023-02-16T05:04:24.530Z,7.50
2023-02-16T05:06:51.856Z,5.07
2023-02-16T05:09:19.213Z,8.98
2023-02-16T05:12:04.865Z,7.13
2023-02-16T05:14:47.174Z,5.03
2023-02-16T05:17:17.578Z,5.00
2023-02-16T05:19:49.179Z,8.18
2023-02-16T05:22:17.050Z,9.43
2023-02-16T05:24:47.999Z,5.68
2023-02-16T05:27:21.269Z,8.70
2023-02-16T05:29:52.288Z,6.90
2023-02-16T05:32:21.936Z,9.95
2023-02-16T05:37:19.732Z,8.65
2023-02-16T05:39:55.477Z,6.35
2023-02-16T05:42:22.664Z,5.78
2023-02-16T05:44:49.859Z,4.78
2023-02-16T05:47:19.120Z,5.32
2023-02-16T05:49:46.352Z,10.98
2023-02-16T05:52:13.540Z,7.63
2023-02-16T05:54:42.825Z,3.40
2023-02-16T05:57:10.205Z,8.88
2023-02-16T05:59:37.485Z,6.10
2023-02-16T06:02:09.795Z,5.57
2023-02-16T06:04:38.103Z,12.98
2023-02-16T06:07:05.335Z,8.32
2023-02-16T06:09:32.525Z,9.32
2023-02-16T06:12:18.149Z,8.93
2023-02-16T06:14:45.363Z,7.38
2023-02-16T06:17:12.531Z,4.93
2023-02-16T06:19:39.728Z,5.13
2023-02-16T06:22:06.980Z,9.15
2023-02-16T06:24:34.216Z,8.80
2023-02-16T06:27:01.417Z,7.22
2023-02-16T06:29:28.647Z,5.35
2023-02-16T06:31:56.159Z,9.98
2023-02-16T06:34:23.554Z,6.10
2023-02-16T06:36:50.773Z,7.93
2023-02-16T06:39:18.043Z,8.52
2023-02-16T06:41:45.276Z,7.13
2023-02-16T06:44:15.449Z,4.88
2023-02-16T06:46:44.772Z,6.13
2023-02-16T06:49:14.407Z,8.80
2023-02-16T06:51:41.852Z,6.93
2023-02-16T06:54:10.717Z,10.02
2023-02-16T06:56:38.159Z,9.15
2023-02-16T06:59:05.537Z,8.95
2023-02-16T07:01:34.802Z,6.20
2023-02-16T07:04:01.999Z,9.20
2023-02-16T07:06:29.404Z,9.40
2023-02-16T07:08:56.630Z,6.70
2023-02-16T07:11:23.922Z,9.13
2023-02-16T07:13:51.409Z,8.27
2023-02-16T07:16:18.777Z,5.18
2023-02-16T07:18:46.546Z,4.20
2023-02-16T07:21:14.439Z,7.07
2023-02-16T07:23:42.333Z,7.53
2023-02-16T07:26:09.923Z,12.80
2023-02-16T07:28:37.205Z,10.40
2023-02-16T07:31:09.891Z,11.93
2023-02-16T07:33:37.718Z,15.07
2023-02-16T07:36:05.947Z,15.07
2023-02-16T07:39:00.115Z,13.60
2023-02-16T07:41:28.424Z,9.07
2023-02-16T07:43:55.627Z,9.32
2023-02-16T07:46:22.837Z,7.20
2023-02-16T07:48:50.896Z,9.00
2023-02-16T07:51:25.917Z,14.80
2023-02-16T07:53:53.606Z,13.77
2023-02-16T07:56:29.698Z,19.15
2023-02-16T07:58:58.863Z,7.95
2023-02-16T08:01:27.276Z,11.15
2023-02-16T08:03:54.462Z,14.70
2023-02-16T08:06:22.110Z,12.95
2023-02-16T08:08:49.690Z,14.50
2023-02-16T08:11:22.906Z,12.35
2023-02-16T08:13:50.915Z,8.93
2023-02-16T08:16:21.872Z,22.15
2023-02-16T08:18:56.667Z,13.35
2023-02-16T08:21:27.266Z,16.48
2023-02-16T08:23:57.291Z,15.23
2023-02-16T08:26:27.303Z,17.88
2023-02-16T08:28:56.796Z,13.25
2023-02-16T08:31:26.671Z,17.20
2023-02-16T08:33:54.923Z,13.77
2023-02-16T08:36:34.357Z,14.02
2023-02-16T08:39:04.691Z,14.20
2023-02-16T08:41:34.386Z,13.35
2023-02-16T08:44:02.749Z,15.20
2023-02-16T08:46:30.927Z,16.88
2023-02-16T08:48:59.863Z,20.85
2023-02-16T08:51:30.394Z,11.63
2023-02-16T08:54:00.278Z,18.67
2023-02-16T08:56:29.845Z,16.48
2023-02-16T09:03:55.473Z,11.23
2023-02-16T09:06:22.980Z,16.13
2023-02-16T09:08:53.254Z,15.27
2023-02-16T09:11:21.939Z,12.93
2023-02-16T09:13:49.673Z,14.13
2023-02-16T09:16:19.733Z,12.63
2023-02-16T09:18:47.197Z,15.98
2023-02-16T09:21:19.447Z,20.02
2023-02-16T09:23:49.222Z,21.73
2023-02-16T09:26:18.262Z,15.68
2023-02-16T09:28:46.182Z,16.52
2023-02-16T09:31:14.550Z,22.63
2023-02-16T09:33:43.528Z,13.13
2023-02-16T09:36:12.828Z,21.25
2023-02-16T09:38:40.484Z,20.02
2023-02-16T09:41:18.282Z,25.02
2023-02-16T09:43:48.649Z,16.83
2023-02-16T09:46:22.225Z,19.58
2023-02-16T09:48:50.957Z,18.45
2023-02-16T09:51:29.365Z,19.40
2023-02-16T09:54:22.830Z,16.70
2023-02-16T09:57:14.638Z,23.42
2023-02-16T09:59:52.809Z,13.80
2023-02-16T10:02:35.130Z,17.27
2023-02-16T10:05:17.346Z,20.05
2023-02-16T10:08:05.587Z,22.25
2023-02-16T10:10:44.554Z,19.10
2023-02-16T10:13:43.841Z,22.33
2023-02-16T10:16:20.669Z,19.27
2023-02-16T10:18:50.437Z,19.27
2023-02-16T10:21:24.187Z,20.95
2023-02-16T10:24:07.042Z,20.00
2023-02-16T10:27:04.440Z,22.45
2023-02-16T10:29:31.633Z,19.35
2023-02-16T10:32:23.730Z,20.42
2023-02-16T10:35:04.591Z,22.00
2023-02-16T10:37:45.751Z,21.60
2023-02-16T10:40:23.309Z,18.13
2023-02-16T10:43:24.481Z,20.48
2023-02-16T10:45:53.022Z,19.73
2023-02-16T10:48:21.910Z,16.80
2023-02-16T10:51:03.477Z,18.30
2023-02-16T10:53:43.732Z,20.90
2023-02-16T10:56:49.588Z,27.27
2023-02-16T10:59:18.933Z,17.67
2023-02-16T11:01:50.150Z,22.42
2023-02-16T11:04:39.768Z,19.52
2023-02-16T11:07:14.195Z,18.15
2023-02-16T11:09:43.489Z,20.58
2023-02-16T11:12:27.292Z,18.27
2023-02-16T11:15:24.793Z,17.65
2023-02-16T11:18:08.061Z,18.02
2023-02-16T11:20:35.218Z,14.45
2023-02-16T11:23:28.041Z,15.07
2023-02-16T11:26:10.496Z,15.50
2023-02-16T11:28:44.138Z,18.45
2023-02-16T11:31:13.915Z,18.48
2023-02-16T11:33:42.538Z,16.60
2023-02-16T11:36:24.196Z,18.52
2023-02-16T11:39:02.610Z,16.17
2023-02-16T11:41:30.778Z,18.50
2023-02-16T11:43:58.125Z,19.67
2023-02-16T11:46:25.955Z,17.02
2023-02-16T11:48:53.739Z,17.38
2023-02-16T11:51:36.381Z,15.38
2023-02-16T11:54:05.970Z,19.75
2023-02-16T11:56:40.787Z,17.55
2023-02-16T11:59:21.940Z,15.73
2023-02-16T12:04:57.811Z,17.85
2023-02-16T12:07:46.943Z,15.48
2023-02-16T12:10:29.877Z,15.68
2023-02-16T12:13:00.149Z,17.25
2023-02-16T12:15:44.812Z,18.85
2023-02-16T12:18:53.449Z,14.77
2023-02-16T12:21:49.358Z,17.08
2023-02-16T12:24:45.103Z,17.60
2023-02-16T12:27:52.486Z,17.20
2023-02-16T12:30:44.825Z,16.23
2023-02-16T12:33:33.261Z,13.30
2023-02-16T12:36:31.697Z,15.52
2023-02-16T12:39:29.879Z,15.75
2023-02-16T12:42:39.022Z,15.32
2023-02-16T12:45:22.722Z,14.57
2023-02-16T12:48:01.218Z,12.27
2023-02-16T12:50:32.550Z,15.25
2023-02-16T12:53:26.899Z,14.23
2023-02-16T12:55:59.484Z,12.70
2023-02-16T12:58:32.126Z,15.73
2023-02-16T13:01:19.750Z,12.25
2023-02-16T13:04:33.744Z,12.32
2023-02-16T13:07:16.271Z,14.18
2023-02-16T13:09:58.634Z,11.25
2023-02-16T13:12:55.583Z,12.70
2023-02-16T13:15:32.431Z,11.23
2023-02-16T13:18:23.841Z,13.20
2023-02-16T13:21:04.231Z,11.15
2023-02-16T13:23:51.588Z,12.38
2023-02-16T13:29:29.060Z,12.68
2023-02-16T13:35:29.975Z,13.85
2023-02-16T13:38:03.391Z,14.13
2023-02-16T13:40:56.307Z,14.00
2023-02-16T13:43:41.021Z,13.98
2023-02-16T13:46:17.889Z,11.88
2023-02-16T13:48:46.860Z,14.32
2023-02-16T13:51:18.199Z,11.38
2023-02-16T13:53:54.378Z,10.15
2023-02-16T13:56:36.988Z,10.90
2023-02-16T13:59:16.994Z,10.63
2023-02-16T14:01:51.409Z,11.30
2023-02-16T14:04:24.976Z,12.52
2023-02-16T14:07:19.995Z,13.57
2023-02-16T14:09:48.487Z,10.18
2023-02-16T14:12:28.041Z,12.00
2023-02-16T14:15:01.897Z,14.10
2023-02-16T14:17:35.539Z,11.13
2023-02-16T14:20:09.008Z,12.52
2023-02-16T14:23:02.519Z,12.27
2023-02-16T14:25:37.257Z,9.50
2023-02-16T14:28:22.937Z,12.15
2023-02-16T14:30:54.434Z,11.65
2023-02-16T14:33:40.769Z,10.70
2023-02-16T14:36:16.647Z,12.38
2023-02-16T14:38:50.356Z,10.95
2023-02-16T14:41:25.813Z,11.38
2023-02-16T14:44:36.826Z,12.75
2023-02-16T14:47:25.705Z,9.00
2023-02-16T14:50:11.625Z,13.07
2023-02-16T14:53:17.199Z,10.48
2023-02-16T14:55:47.417Z,14.98
2023-02-16T14:58:25.873Z,14.20
2023-02-16T15:00:54.005Z,17.77
2023-02-16T15:03:24.219Z,13.85
2023-02-16T15:06:02.264Z,12.18
2023-02-16T15:08:39.344Z,17.02
2023-02-16T15:11:34.533Z,12.90
2023-02-16T15:14:04.480Z,14.57
2023-02-16T15:16:32.741Z,14.30
2023-02-16T15:19:07.637Z,12.40
2023-02-16T15:21:34.863Z,14.27
2023-02-16T15:24:08.003Z,14.20
2023-02-16T15:26:36.163Z,14.15
2023-02-16T15:29:21.208Z,15.38
2023-02-16T15:31:49.120Z,14.18
2023-02-16T15:34:36.073Z,16.05
2023-02-16T15:37:29.600Z,12.82
2023-02-16T15:40:25.015Z,13.10
2023-02-16T15:42:57.512Z,12.85
2023-02-16T15:45:32.493Z,17.35
2023-02-16T15:48:38.229Z,16.15
2023-02-16T15:51:17.527Z,20.23
2023-02-16T15:54:08.782Z,16.25
2023-02-16T15:57:34.967Z,15.32
2023-02-16T16:00:25.437Z,14.50
2023-02-16T16:02:58.372Z,17.55
2023-02-16T16:05:39.760Z,24.35
2023-02-16T16:10:42.168Z,15.55
2023-02-16T16:13:29.914Z,18.40
2023-02-16T16:16:06.814Z,17.48
2023-02-16T16:18:46.666Z,18.85
2023-02-16T16:21:24.761Z,17.52
2023-02-16T16:23:55.140Z,21.17
2023-02-16T16:26:24.393Z,17.70
2023-02-16T16:28:52.590Z,18.70
2023-02-16T16:31:22.929Z,22.02
2023-02-16T16:34:05.482Z,15.80
2023-02-16T16:36:35.984Z,16.70
2023-02-16T16:39:18.435Z,14.98
2023-02-16T16:41:57.761Z,16.85
2023-02-16T16:44:34.037Z,16.48
2023-02-16T16:47:29.303Z,14.32
2023-02-16T16:50:09.174Z,15.55
2023-02-16T16:52:44.840Z,12.85
2023-02-16T16:55:27.200Z,14.25
2023-02-16T16:58:00.319Z,21.30
2023-02-16T17:00:31.543Z,33.67
2023-02-16T17:02:58.797Z,17.45
2023-02-16T17:05:26.315Z,17.80
2023-02-16T17:07:53.669Z,28.00
2023-02-16T17:10:21.924Z,42.60
2023-02-16T17:12:53.069Z,37.72
2023-02-16T17:15:56.760Z,23.13
2023-02-16T17:18:24.013Z,12.25
2023-02-16T17:20:51.543Z,12.57
2023-02-16T17:23:20.647Z,12.60
2023-02-16T17:25:48.386Z,12.75
2023-02-16T17:28:17.441Z,8.70
2023-02-16T17:30:44.800Z,9.85
2023-02-16T17:33:12.371Z,10.90
2023-02-16T17:35:42.592Z,10.35
2023-02-16T17:38:19.343Z,10.63
2023-02-16T17:40:52.144Z,10.18
2023-02-16T17:43:21.361Z,11.10
2023-02-16T17:45:49.766Z,13.70
2023-02-16T17:48:21.165Z,12.52
2023-02-16T17:50:49.401Z,13.85
2023-02-16T17:53:18.977Z,13.52
2023-02-16T17:55:48.244Z,11.90
2023-02-16T17:58:16.432Z,10.40
2023-02-16T18:00:45.039Z,16.17
2023-02-16T18:03:12.331Z,11.35
2023-02-16T18:05:39.915Z,10.35
2023-02-16T18:08:07.842Z,11.75
2023-02-16T18:10:47.390Z,12.75
2023-02-16T18:13:15.443Z,15.85
2023-02-16T18:15:47.580Z,14.32
2023-02-16T18:18:21.293Z,11.60
2023-02-16T18:20:48.537Z,28.50
2023-02-16T18:23:15.837Z,19.50
2023-02-16T18:25:44.066Z,13.95
2023-02-16T18:28:20.123Z,10.98
2023-02-16T18:30:49.148Z,10.93
2023-02-16T18:33:21.277Z,16.10
2023-02-16T18:35:52.874Z,13.38
2023-02-16T18:38:31.534Z,15.45
2023-02-16T18:40:58.773Z,15.90
2023-02-16T18:43:27.056Z,12.85
2023-02-16T18:45:54.293Z,14.18
2023-02-16T18:48:24.658Z,16.20
2023-02-16T18:50:51.954Z,13.23
2023-02-16T18:53:20.220Z,10.90
2023-02-16T18:55:47.416Z,19.88
2023-02-16T18:58:15.005Z,11.57
2023-02-16T19:00:42.927Z,12.13
2023-02-16T19:03:12.330Z,13.25
2023-02-16T19:05:39.550Z,12.15
2023-02-16T19:08:08.761Z,12.68
2023-02-16T19:13:03.325Z,10.75
2023-02-16T19:15:30.629Z,13.82
2023-02-16T19:18:00.986Z,11.20
2023-02-16T19:20:29.588Z,14.63
2023-02-16T19:23:01.905Z,12.07
2023-02-16T19:25:29.326Z,13.70
2023-02-16T19:27:56.596Z,12.70
2023-02-16T19:30:24.283Z,15.27
2023-02-16T19:32:53.602Z,11.23
2023-02-16T19:35:20.988Z,14.00
2023-02-16T19:37:48.266Z,15.23
2023-02-16T19:40:18.680Z,12.88
2023-02-16T19:42:45.927Z,13.45
2023-02-16T19:45:13.357Z,13.10
2023-02-16T19:47:40.625Z,16.25
2023-02-16T19:50:09.141Z,12.88
2023-02-16T19:52:36.341Z,12.73
2023-02-16T19:55:05.842Z,11.52
2023-02-16T19:57:33.382Z,12.23
2023-02-16T20:00:00.629Z,15.40
2023-02-16T20:02:27.880Z,16.90
2023-02-16T20:04:55.117Z,12.05
2023-02-16T20:07:24.364Z,17.73
2023-02-16T20:12:19.587Z,11.98
2023-02-16T20:14:46.784Z,14.20
2023-02-16T20:17:44.412Z,12.73
2023-02-16T20:20:12.554Z,16.02
2023-02-16T20:22:39.917Z,14.93
2023-02-16T20:25:07.203Z,17.48
2023-02-16T20:27:35.261Z,13.90
2023-02-16T20:30:06.111Z,12.15
2023-02-16T20:32:34.017Z,15.02
2023-02-16T20:35:07.324Z,15.55
2023-02-16T20:37:35.151Z,14.45
2023-02-16T20:40:02.590Z,14.68
2023-02-16T20:42:29.857Z,15.18
2023-02-16T20:44:57.118Z,13.85
2023-02-16T20:47:24.372Z,14.85
2023-02-16T20:49:51.610Z,14.10
2023-02-16T20:52:18.849Z,13.52
2023-02-16T20:54:46.181Z,14.52
2023-02-16T20:57:26.065Z,13.82
2023-02-16T20:59:54.856Z,11.50
2023-02-16T21:02:22.231Z,15.23
2023-02-16T21:04:49.599Z,13.77
2023-02-16T21:07:16.878Z,11.45
2023-02-16T21:09:44.143Z,13.35
2023-02-16T21:12:13.033Z,16.38
2023-02-16T21:14:40.270Z,11.88
2023-02-16T21:17:08.554Z,15.35
2023-02-16T21:19:37.825Z,14.93
2023-02-16T21:22:05.165Z,18.80
2023-02-16T21:24:32.400Z,13.93
2023-02-16T21:26:59.590Z,16.17
2023-02-16T21:29:26.782Z,12.77
2023-02-16T21:31:55.416Z,18.45
2023-02-16T21:34:23.237Z,13.63
2023-02-16T21:36:51.494Z,19.30
2023-02-16T21:39:41.070Z,12.27
2023-02-16T21:42:08.654Z,22.60
2023-02-16T21:44:43.034Z,16.02
2023-02-16T21:47:33.531Z,18.05
2023-02-16T21:50:01.359Z,18.50
2023-02-16T21:52:28.564Z,18.48
2023-02-16T21:55:14.572Z,15.52
2023-02-16T21:57:42.277Z,17.42
2023-02-16T22:00:15.518Z,18.92
2023-02-16T22:02:43.256Z,18.55
2023-02-16T22:05:12.453Z,20.63
2023-02-16T22:07:40.138Z,14.18
2023-02-16T22:10:09.685Z,18.23
2023-02-16T22:12:36.992Z,17.05
2023-02-16T22:15:04.276Z,17.45
2023-02-16T22:17:33.707Z,13.75
2023-02-16T22:20:01.164Z,17.10
2023-02-16T22:22:29.481Z,18.50
2023-02-16T22:24:57.741Z,15.35
2023-02-16T22:27:25.415Z,18.55
2023-02-16T22:29:53.606Z,18.48
2023-02-16T22:32:24.970Z,15.40
2023-02-16T22:34:54.132Z,20.08
2023-02-16T22:37:22.084Z,17.27
2023-02-16T22:39:49.516Z,19.05
2023-02-16T22:42:16.822Z,16.63
2023-02-16T22:44:44.066Z,13.82
2023-02-16T22:47:11.757Z,18.60
2023-02-16T22:49:39.252Z,12.27
2023-02-16T22:52:06.725Z,22.75
2023-02-16T22:54:34.372Z,14.48
2023-02-16T22:57:03.880Z,18.80
2023-02-16T23:02:14.475Z,14.80
2023-02-16T23:04:43.317Z,17.88
2023-02-16T23:07:10.765Z,17.75
2023-02-16T23:09:38.786Z,15.90
2023-02-16T23:12:06.443Z,14.25
2023-02-16T23:14:36.845Z,15.98
2023-02-16T23:17:04.200Z,21.92
2023-02-16T23:19:32.416Z,16.27
2023-02-16T23:21:59.850Z,19.13
2023-02-16T23:24:27.542Z,21.85
2023-02-16T23:26:55.492Z,16.90
2023-02-16T23:29:23.184Z,16.83
2023-02-16T23:31:51.793Z,16.20
2023-02-16T23:34:21.245Z,14.30
2023-02-16T23:36:48.708Z,16.30
2023-02-16T23:39:18.669Z,15.98
2023-02-16T23:41:46.941Z,20.77
2023-02-16T23:44:15.882Z,20.55
2023-02-16T23:46:43.350Z,14.98
2023-02-16T23:49:10.652Z,14.88
2023-02-16T23:51:37.836Z,15.48
2023-02-16T23:54:05.385Z,15.63
2023-02-16T23:56:33.888Z,15.07
2023-02-16T23:59:01.790Z,16.63
